sensor_id;sensor_type;location;lat;lon;timestamp;temperature;humidity
56478;DHT22;42382;53.210;5.772;2022-08-19T00:01:51;17.90;79.00
56478;DHT22;42382;53.210;5.772;2022-08-19T00:04:18;17.90;79.10
56478;DHT22;42382;53.210;5.772;2022-08-19T00:06:47;17.90;79.20
56478;DHT22;42382;53.210;5.772;2022-08-19T00:09:16;17.80;79.30
56478;DHT22;42382;53.210;5.772;2022-08-19T00:11:43;17.80;79.40
56478;DHT22;42382;53.210;5.772;2022-08-19T00:14:10;17.80;79.50
56478;DHT22;42382;53.210;5.772;2022-08-19T00:16:40;17.70;79.60
56478;DHT22;42382;53.210;5.772;2022-08-19T00:19:07;17.70;79.70
56478;DHT22;42382;53.210;5.772;2022-08-19T00:21:32;17.60;79.70
56478;DHT22;42382;53.210;5.772;2022-08-19T00:24:01;17.60;79.80
56478;DHT22;42382;53.210;5.772;2022-08-19T00:26:28;17.50;79.90
56478;DHT22;42382;53.210;5.772;2022-08-19T00:28:54;17.50;80.00
56478;DHT22;42382;53.210;5.772;2022-08-19T00:31:21;17.50;80.10
56478;DHT22;42382;53.210;5.772;2022-08-19T00:33:47;17.50;80.10
56478;DHT22;42382;53.210;5.772;2022-08-19T00:36:17;17.50;80.10
56478;DHT22;42382;53.210;5.772;2022-08-19T00:38:45;17.50;80.20
56478;DHT22;42382;53.210;5.772;2022-08-19T00:41:19;17.50;80.20
56478;DHT22;42382;53.210;5.772;2022-08-19T00:44:11;17.40;80.30
56478;DHT22;42382;53.210;5.772;2022-08-19T00:46:40;17.40;80.20
56478;DHT22;42382;53.210;5.772;2022-08-19T00:49:30;17.40;80.40
56478;DHT22;42382;53.210;5.772;2022-08-19T00:52:04;17.40;80.10
56478;DHT22;42382;53.210;5.772;2022-08-19T00:54:31;17.40;80.50
56478;DHT22;42382;53.210;5.772;2022-08-19T00:56:58;17.40;80.60
56478;DHT22;42382;53.210;5.772;2022-08-19T00:59:25;17.40;80.60
56478;DHT22;42382;53.210;5.772;2022-08-19T01:01:51;17.40;80.60
56478;DHT22;42382;53.210;5.772;2022-08-19T01:04:17;17.40;80.70
56478;DHT22;42382;53.210;5.772;2022-08-19T01:06:43;17.40;80.70
56478;DHT22;42382;53.210;5.772;2022-08-19T01:09:08;17.40;80.70
56478;DHT22;42382;53.210;5.772;2022-08-19T01:11:37;17.40;80.70
56478;DHT22;42382;53.210;5.772;2022-08-19T01:14:05;17.40;80.80
56478;DHT22;42382;53.210;5.772;2022-08-19T01:16:32;17.40;80.80
56478;DHT22;42382;53.210;5.772;2022-08-19T01:18:58;17.40;80.90
56478;DHT22;42382;53.210;5.772;2022-08-19T01:21:54;17.40;80.90
56478;DHT22;42382;53.210;5.772;2022-08-19T01:24:20;17.40;80.90
56478;DHT22;42382;53.210;5.772;2022-08-19T01:26:47;17.30;81.00
56478;DHT22;42382;53.210;5.772;2022-08-19T01:29:13;17.30;81.20
56478;DHT22;42382;53.210;5.772;2022-08-19T01:31:39;17.30;81.30
56478;DHT22;42382;53.210;5.772;2022-08-19T01:34:05;17.30;81.40
56478;DHT22;42382;53.210;5.772;2022-08-19T01:39:24;17.30;81.50
56478;DHT22;42382;53.210;5.772;2022-08-19T01:41:50;17.20;81.40
56478;DHT22;42382;53.210;5.772;2022-08-19T01:44:19;17.20;81.50
56478;DHT22;42382;53.210;5.772;2022-08-19T01:46:48;17.20;81.60
56478;DHT22;42382;53.210;5.772;2022-08-19T01:49:15;17.20;81.60
56478;DHT22;42382;53.210;5.772;2022-08-19T01:51:41;17.10;81.70
56478;DHT22;42382;53.210;5.772;2022-08-19T01:54:08;17.10;81.80
56478;DHT22;42382;53.210;5.772;2022-08-19T01:56:34;17.10;81.90
56478;DHT22;42382;53.210;5.772;2022-08-19T01:59:05;17.00;81.90
56478;DHT22;42382;53.210;5.772;2022-08-19T02:01:33;17.10;82.10
56478;DHT22;42382;53.210;5.772;2022-08-19T02:03:59;17.10;82.00
56478;DHT22;42382;53.210;5.772;2022-08-19T02:06:28;17.00;82.00
56478;DHT22;42382;53.210;5.772;2022-08-19T02:08:54;17.00;82.20
56478;DHT22;42382;53.210;5.772;2022-08-19T02:11:29;17.00;82.20
56478;DHT22;42382;53.210;5.772;2022-08-19T02:13:57;17.00;82.30
56478;DHT22;42382;53.210;5.772;2022-08-19T02:16:23;17.00;82.40
56478;DHT22;42382;53.210;5.772;2022-08-19T02:18:49;16.90;82.40
56478;DHT22;42382;53.210;5.772;2022-08-19T02:21:17;17.00;82.50
56478;DHT22;42382;53.210;5.772;2022-08-19T02:23:43;16.90;82.70
56478;DHT22;42382;53.210;5.772;2022-08-19T02:26:08;16.90;82.80
56478;DHT22;42382;53.210;5.772;2022-08-19T02:28:34;16.90;82.90
56478;DHT22;42382;53.210;5.772;2022-08-19T02:31:00;16.80;82.90
56478;DHT22;42382;53.210;5.772;2022-08-19T02:33:26;16.80;82.90
56478;DHT22;42382;53.210;5.772;2022-08-19T02:35:52;16.80;82.90
56478;DHT22;42382;53.210;5.772;2022-08-19T02:38:17;16.80;83.00
56478;DHT22;42382;53.210;5.772;2022-08-19T02:40:55;16.80;83.10
56478;DHT22;42382;53.210;5.772;2022-08-19T02:43:21;16.70;83.30
56478;DHT22;42382;53.210;5.772;2022-08-19T02:45:48;16.80;83.30
56478;DHT22;42382;53.210;5.772;2022-08-19T02:48:16;16.70;83.30
56478;DHT22;42382;53.210;5.772;2022-08-19T02:50:43;16.70;83.40
56478;DHT22;42382;53.210;5.772;2022-08-19T02:53:09;16.70;83.50
56478;DHT22;42382;53.210;5.772;2022-08-19T02:55:36;16.70;83.60
56478;DHT22;42382;53.210;5.772;2022-08-19T02:58:07;16.70;83.60
56478;DHT22;42382;53.210;5.772;2022-08-19T03:00:32;16.60;83.60
56478;DHT22;42382;53.210;5.772;2022-08-19T03:02:58;16.60;83.60
56478;DHT22;42382;53.210;5.772;2022-08-19T03:05:24;16.70;83.70
56478;DHT22;42382;53.210;5.772;2022-08-19T03:07:50;16.70;83.60
56478;DHT22;42382;53.210;5.772;2022-08-19T03:10:15;16.60;83.80
56478;DHT22;42382;53.210;5.772;2022-08-19T03:12:41;16.60;83.80
56478;DHT22;42382;53.210;5.772;2022-08-19T03:15:07;16.60;83.90
56478;DHT22;42382;53.210;5.772;2022-08-19T03:17:34;16.60;84.00
56478;DHT22;42382;53.210;5.772;2022-08-19T03:20:00;16.60;84.00
56478;DHT22;42382;53.210;5.772;2022-08-19T03:22:26;16.60;84.10
56478;DHT22;42382;53.210;5.772;2022-08-19T03:24:52;16.60;84.20
56478;DHT22;42382;53.210;5.772;2022-08-19T03:27:18;16.60;84.20
56478;DHT22;42382;53.210;5.772;2022-08-19T03:29:44;16.50;84.30
56478;DHT22;42382;53.210;5.772;2022-08-19T03:32:10;16.50;84.40
56478;DHT22;42382;53.210;5.772;2022-08-19T03:34:37;16.50;84.40
56478;DHT22;42382;53.210;5.772;2022-08-19T03:37:06;16.50;84.50
56478;DHT22;42382;53.210;5.772;2022-08-19T03:39:33;16.50;84.70
56478;DHT22;42382;53.210;5.772;2022-08-19T03:41:58;16.50;84.70
56478;DHT22;42382;53.210;5.772;2022-08-19T03:44:29;16.40;84.80
56478;DHT22;42382;53.210;5.772;2022-08-19T03:46:57;16.50;84.90
56478;DHT22;42382;53.210;5.772;2022-08-19T03:49:25;16.40;84.90
56478;DHT22;42382;53.210;5.772;2022-08-19T03:51:54;16.50;85.00
56478;DHT22;42382;53.210;5.772;2022-08-19T03:54:21;16.40;85.10
56478;DHT22;42382;53.210;5.772;2022-08-19T03:56:49;16.40;85.10
56478;DHT22;42382;53.210;5.772;2022-08-19T03:59:27;16.40;85.20
56478;DHT22;42382;53.210;5.772;2022-08-19T04:01:56;16.40;85.20
56478;DHT22;42382;53.210;5.772;2022-08-19T04:04:22;16.40;85.30
56478;DHT22;42382;53.210;5.772;2022-08-19T04:06:48;16.30;85.50
56478;DHT22;42382;53.210;5.772;2022-08-19T04:09:14;16.40;85.40
56478;DHT22;42382;53.210;5.772;2022-08-19T04:11:52;16.40;85.60
56478;DHT22;42382;53.210;5.772;2022-08-19T04:14:24;16.40;85.60
56478;DHT22;42382;53.210;5.772;2022-08-19T04:16:50;16.30;85.60
56478;DHT22;42382;53.210;5.772;2022-08-19T04:19:17;16.30;85.60
56478;DHT22;42382;53.210;5.772;2022-08-19T04:21:48;16.30;85.60
56478;DHT22;42382;53.210;5.772;2022-08-19T04:24:14;16.30;85.90
56478;DHT22;42382;53.210;5.772;2022-08-19T04:26:40;16.30;85.80
56478;DHT22;42382;53.210;5.772;2022-08-19T04:29:13;16.30;85.80
56478;DHT22;42382;53.210;5.772;2022-08-19T04:31:40;16.30;86.00
56478;DHT22;42382;53.210;5.772;2022-08-19T04:34:08;16.30;85.80
56478;DHT22;42382;53.210;5.772;2022-08-19T04:36:36;16.30;86.00
56478;DHT22;42382;53.210;5.772;2022-08-19T04:39:10;16.30;86.00
56478;DHT22;42382;53.210;5.772;2022-08-19T04:41:35;16.30;86.00
56478;DHT22;42382;53.210;5.772;2022-08-19T04:44:20;16.30;86.10
56478;DHT22;42382;53.210;5.772;2022-08-19T04:46:47;16.30;86.00
56478;DHT22;42382;53.210;5.772;2022-08-19T04:49:13;16.30;86.10
56478;DHT22;42382;53.210;5.772;2022-08-19T04:51:41;16.40;86.10
56478;DHT22;42382;53.210;5.772;2022-08-19T04:54:08;16.40;86.00
56478;DHT22;42382;53.210;5.772;2022-08-19T04:56:34;16.40;86.10
56478;DHT22;42382;53.210;5.772;2022-08-19T04:59:00;16.40;86.20
56478;DHT22;42382;53.210;5.772;2022-08-19T05:01:30;16.40;86.20
56478;DHT22;42382;53.210;5.772;2022-08-19T05:03:58;16.40;86.50
56478;DHT22;42382;53.210;5.772;2022-08-19T05:06:25;16.40;86.40
56478;DHT22;42382;53.210;5.772;2022-08-19T05:08:51;16.40;86.50
56478;DHT22;42382;53.210;5.772;2022-08-19T05:11:19;16.50;86.60
56478;DHT22;42382;53.210;5.772;2022-08-19T05:13:46;16.50;86.50
56478;DHT22;42382;53.210;5.772;2022-08-19T05:16:15;16.50;86.50
56478;DHT22;42382;53.210;5.772;2022-08-19T05:18:41;16.50;86.80
56478;DHT22;42382;53.210;5.772;2022-08-19T05:21:26;16.50;87.00
56478;DHT22;42382;53.210;5.772;2022-08-19T05:24:10;16.50;87.10
56478;DHT22;42382;53.210;5.772;2022-08-19T05:26:38;16.50;87.10
56478;DHT22;42382;53.210;5.772;2022-08-19T05:29:04;16.60;87.10
56478;DHT22;42382;53.210;5.772;2022-08-19T05:31:30;16.60;87.10
56478;DHT22;42382;53.210;5.772;2022-08-19T05:33:56;16.60;87.20
56478;DHT22;42382;53.210;5.772;2022-08-19T05:36:27;16.60;87.20
56478;DHT22;42382;53.210;5.772;2022-08-19T05:38:53;16.70;87.40
56478;DHT22;42382;53.210;5.772;2022-08-19T05:41:20;16.60;87.30
56478;DHT22;42382;53.210;5.772;2022-08-19T05:43:46;16.70;87.40
56478;DHT22;42382;53.210;5.772;2022-08-19T05:46:19;16.80;87.60
56478;DHT22;42382;53.210;5.772;2022-08-19T05:48:45;16.80;87.70
56478;DHT22;42382;53.210;5.772;2022-08-19T05:51:12;16.80;87.70
56478;DHT22;42382;53.210;5.772;2022-08-19T05:53:38;16.80;87.70
56478;DHT22;42382;53.210;5.772;2022-08-19T05:56:08;16.90;87.70
56478;DHT22;42382;53.210;5.772;2022-08-19T05:58:35;16.90;87.80
56478;DHT22;42382;53.210;5.772;2022-08-19T06:01:02;16.90;87.80
56478;DHT22;42382;53.210;5.772;2022-08-19T06:03:33;17.00;87.60
56478;DHT22;42382;53.210;5.772;2022-08-19T06:06:00;17.10;88.00
56478;DHT22;42382;53.210;5.772;2022-08-19T06:08:26;17.20;87.80
56478;DHT22;42382;53.210;5.772;2022-08-19T06:10:52;17.20;88.00
56478;DHT22;42382;53.210;5.772;2022-08-19T06:13:18;17.30;88.00
56478;DHT22;42382;53.210;5.772;2022-08-19T06:15:45;17.30;88.20
56478;DHT22;42382;53.210;5.772;2022-08-19T06:18:13;17.40;88.10
56478;DHT22;42382;53.210;5.772;2022-08-19T06:20:39;17.40;88.00
56478;DHT22;42382;53.210;5.772;2022-08-19T06:23:05;17.50;88.10
56478;DHT22;42382;53.210;5.772;2022-08-19T06:25:31;17.50;87.90
56478;DHT22;42382;53.210;5.772;2022-08-19T06:27:56;17.60;88.00
56478;DHT22;42382;53.210;5.772;2022-08-19T06:30:23;17.60;88.00
56478;DHT22;42382;53.210;5.772;2022-08-19T06:32:48;17.70;88.10
56478;DHT22;42382;53.210;5.772;2022-08-19T06:35:14;17.80;87.60
56478;DHT22;42382;53.210;5.772;2022-08-19T06:37:40;17.80;87.60
56478;DHT22;42382;53.210;5.772;2022-08-19T06:40:07;17.80;87.70
56478;DHT22;42382;53.210;5.772;2022-08-19T06:42:34;17.90;87.70
56478;DHT22;42382;53.210;5.772;2022-08-19T06:45:01;17.90;87.70
56478;DHT22;42382;53.210;5.772;2022-08-19T06:47:29;18.00;87.70
56478;DHT22;42382;53.210;5.772;2022-08-19T06:49:57;18.10;87.70
56478;DHT22;42382;53.210;5.772;2022-08-19T06:52:27;18.10;87.80
56478;DHT22;42382;53.210;5.772;2022-08-19T06:54:52;18.30;87.70
56478;DHT22;42382;53.210;5.772;2022-08-19T06:57:19;18.30;87.70
56478;DHT22;42382;53.210;5.772;2022-08-19T06:59:45;18.40;87.80
56478;DHT22;42382;53.210;5.772;2022-08-19T07:02:10;18.40;87.60
56478;DHT22;42382;53.210;5.772;2022-08-19T07:04:37;18.40;87.50
56478;DHT22;42382;53.210;5.772;2022-08-19T07:07:10;18.60;87.70
56478;DHT22;42382;53.210;5.772;2022-08-19T07:09:39;18.70;87.60
56478;DHT22;42382;53.210;5.772;2022-08-19T07:12:07;18.80;87.50
56478;DHT22;42382;53.210;5.772;2022-08-19T07:17:04;18.90;87.60
56478;DHT22;42382;53.210;5.772;2022-08-19T07:19:30;19.10;87.30
56478;DHT22;42382;53.210;5.772;2022-08-19T07:21:57;19.10;87.40
56478;DHT22;42382;53.210;5.772;2022-08-19T07:24:25;19.20;87.50
56478;DHT22;42382;53.210;5.772;2022-08-19T07:26:53;19.30;87.30
56478;DHT22;42382;53.210;5.772;2022-08-19T07:29:21;19.30;87.10
56478;DHT22;42382;53.210;5.772;2022-08-19T07:31:49;19.40;87.20
56478;DHT22;42382;53.210;5.772;2022-08-19T07:34:15;19.50;87.10
56478;DHT22;42382;53.210;5.772;2022-08-19T07:36:41;19.70;86.90
56478;DHT22;42382;53.210;5.772;2022-08-19T07:39:12;19.80;87.00
56478;DHT22;42382;53.210;5.772;2022-08-19T07:41:38;19.90;86.80
56478;DHT22;42382;53.210;5.772;2022-08-19T07:44:05;20.20;86.90
56478;DHT22;42382;53.210;5.772;2022-08-19T07:46:35;20.50;87.20
56478;DHT22;42382;53.210;5.772;2022-08-19T07:49:03;21.10;86.30
56478;DHT22;42382;53.210;5.772;2022-08-19T07:51:29;21.70;84.70
56478;DHT22;42382;53.210;5.772;2022-08-19T07:53:55;22.30;83.30
56478;DHT22;42382;53.210;5.772;2022-08-19T07:56:21;23.00;82.50
56478;DHT22;42382;53.210;5.772;2022-08-19T07:58:50;23.80;80.70
56478;DHT22;42382;53.210;5.772;2022-08-19T08:01:20;24.30;79.80
56478;DHT22;42382;53.210;5.772;2022-08-19T08:03:47;24.70;75.50
56478;DHT22;42382;53.210;5.772;2022-08-19T08:06:32;24.70;75.60
56478;DHT22;42382;53.210;5.772;2022-08-19T08:09:19;24.90;75.70
56478;DHT22;42382;53.210;5.772;2022-08-19T08:11:52;25.20;74.60
56478;DHT22;42382;53.210;5.772;2022-08-19T08:14:32;25.10;74.40
56478;DHT22;42382;53.210;5.772;2022-08-19T08:16:58;25.30;74.10
56478;DHT22;42382;53.210;5.772;2022-08-19T08:19:25;25.80;73.00
56478;DHT22;42382;53.210;5.772;2022-08-19T08:21:51;26.00;71.20
56478;DHT22;42382;53.210;5.772;2022-08-19T08:24:17;26.30;70.70
56478;DHT22;42382;53.210;5.772;2022-08-19T08:26:44;26.30;69.60
56478;DHT22;42382;53.210;5.772;2022-08-19T08:29:10;26.00;69.20
56478;DHT22;42382;53.210;5.772;2022-08-19T08:31:37;26.10;69.80
56478;DHT22;42382;53.210;5.772;2022-08-19T08:34:02;26.30;68.70
56478;DHT22;42382;53.210;5.772;2022-08-19T08:36:28;26.30;66.30
56478;DHT22;42382;53.210;5.772;2022-08-19T08:38:54;26.70;65.20
56478;DHT22;42382;53.210;5.772;2022-08-19T08:45:00;27.50;63.30
56478;DHT22;42382;53.210;5.772;2022-08-19T08:47:11;28.20;61.80
56478;DHT22;42382;53.210;5.772;2022-08-19T08:52:29;28.20;61.30
56478;DHT22;42382;53.210;5.772;2022-08-19T08:54:58;28.30;60.70
56478;DHT22;42382;53.210;5.772;2022-08-19T09:00:25;28.90;58.90
56478;DHT22;42382;53.210;5.772;2022-08-19T09:02:52;29.10;58.90
56478;DHT22;42382;53.210;5.772;2022-08-19T09:05:20;29.20;58.00
56478;DHT22;42382;53.210;5.772;2022-08-19T09:07:53;28.80;58.30
56478;DHT22;42382;53.210;5.772;2022-08-19T09:10:46;28.30;59.40
56478;DHT22;42382;53.210;5.772;2022-08-19T09:13:34;27.90;59.70
56478;DHT22;42382;53.210;5.772;2022-08-19T09:16:06;27.40;61.50
56478;DHT22;42382;53.210;5.772;2022-08-19T09:18:48;27.10;62.00
56478;DHT22;42382;53.210;5.772;2022-08-19T09:21:15;27.20;62.00
56478;DHT22;42382;53.210;5.772;2022-08-19T09:23:40;27.20;61.70
56478;DHT22;42382;53.210;5.772;2022-08-19T09:26:14;27.00;61.30
56478;DHT22;42382;53.210;5.772;2022-08-19T09:28:41;27.10;61.10
56478;DHT22;42382;53.210;5.772;2022-08-19T09:31:12;27.20;61.90
56478;DHT22;42382;53.210;5.772;2022-08-19T09:33:38;27.40;61.50
56478;DHT22;42382;53.210;5.772;2022-08-19T09:36:10;27.40;61.00
56478;DHT22;42382;53.210;5.772;2022-08-19T09:38:37;27.10;61.00
56478;DHT22;42382;53.210;5.772;2022-08-19T09:41:12;26.80;62.00
56478;DHT22;42382;53.210;5.772;2022-08-19T09:43:39;26.90;62.50
56478;DHT22;42382;53.210;5.772;2022-08-19T09:46:07;27.20;62.20
56478;DHT22;42382;53.210;5.772;2022-08-19T09:48:37;27.40;60.70
56478;DHT22;42382;53.210;5.772;2022-08-19T09:51:04;27.60;60.50
56478;DHT22;42382;53.210;5.772;2022-08-19T09:53:31;27.90;60.00
56478;DHT22;42382;53.210;5.772;2022-08-19T09:55:56;28.20;59.60
56478;DHT22;42382;53.210;5.772;2022-08-19T09:58:22;28.60;58.50
56478;DHT22;42382;53.210;5.772;2022-08-19T10:00:53;28.90;58.00
56478;DHT22;42382;53.210;5.772;2022-08-19T10:03:19;29.00;57.50
56478;DHT22;42382;53.210;5.772;2022-08-19T10:05:45;29.10;57.60
56478;DHT22;42382;53.210;5.772;2022-08-19T10:08:20;29.20;57.10
56478;DHT22;42382;53.210;5.772;2022-08-19T10:10:47;29.00;56.60
56478;DHT22;42382;53.210;5.772;2022-08-19T10:13:15;29.00;56.90
56478;DHT22;42382;53.210;5.772;2022-08-19T10:15:42;28.90;57.20
56478;DHT22;42382;53.210;5.772;2022-08-19T10:18:10;28.90;57.50
56478;DHT22;42382;53.210;5.772;2022-08-19T10:20:36;28.80;57.10
56478;DHT22;42382;53.210;5.772;2022-08-19T10:23:02;28.10;55.80
56478;DHT22;42382;53.210;5.772;2022-08-19T10:25:28;28.30;57.00
56478;DHT22;42382;53.210;5.772;2022-08-19T10:27:54;28.30;56.40
56478;DHT22;42382;53.210;5.772;2022-08-19T10:30:20;28.30;57.00
56478;DHT22;42382;53.210;5.772;2022-08-19T10:32:45;28.40;56.80
56478;DHT22;42382;53.210;5.772;2022-08-19T10:35:11;28.40;56.80
56478;DHT22;42382;53.210;5.772;2022-08-19T10:37:37;28.60;56.80
56478;DHT22;42382;53.210;5.772;2022-08-19T10:40:05;28.70;56.70
56478;DHT22;42382;53.210;5.772;2022-08-19T10:42:40;28.60;56.20
56478;DHT22;42382;53.210;5.772;2022-08-19T10:45:06;28.80;55.30
56478;DHT22;42382;53.210;5.772;2022-08-19T10:47:32;28.70;56.10
56478;DHT22;42382;53.210;5.772;2022-08-19T10:49:58;28.30;56.10
56478;DHT22;42382;53.210;5.772;2022-08-19T10:52:45;27.90;56.50
56478;DHT22;42382;53.210;5.772;2022-08-19T10:55:11;27.60;57.60
56478;DHT22;42382;53.210;5.772;2022-08-19T10:57:55;27.40;57.80
56478;DHT22;42382;53.210;5.772;2022-08-19T11:00:23;27.20;58.60
56478;DHT22;42382;53.210;5.772;2022-08-19T11:02:50;27.20;59.00
56478;DHT22;42382;53.210;5.772;2022-08-19T11:05:15;27.30;59.40
56478;DHT22;42382;53.210;5.772;2022-08-19T11:07:43;27.60;59.30
56478;DHT22;42382;53.210;5.772;2022-08-19T11:10:11;27.90;59.60
56478;DHT22;42382;53.210;5.772;2022-08-19T11:12:38;28.10;58.50
56478;DHT22;42382;53.210;5.772;2022-08-19T11:15:09;28.30;57.60
56478;DHT22;42382;53.210;5.772;2022-08-19T11:17:37;28.30;56.50
56478;DHT22;42382;53.210;5.772;2022-08-19T11:20:06;28.30;54.90
56478;DHT22;42382;53.210;5.772;2022-08-19T11:22:32;28.20;55.30
56478;DHT22;42382;53.210;5.772;2022-08-19T11:24:58;27.90;57.20
56478;DHT22;42382;53.210;5.772;2022-08-19T11:27:23;27.60;58.30
56478;DHT22;42382;53.210;5.772;2022-08-19T11:29:49;27.50;57.90
56478;DHT22;42382;53.210;5.772;2022-08-19T11:32:14;27.40;57.00
56478;DHT22;42382;53.210;5.772;2022-08-19T11:34:41;27.40;57.70
56478;DHT22;42382;53.210;5.772;2022-08-19T11:37:07;27.60;57.60
56478;DHT22;42382;53.210;5.772;2022-08-19T11:39:34;27.40;57.30
56478;DHT22;42382;53.210;5.772;2022-08-19T11:42:01;27.60;57.60
56478;DHT22;42382;53.210;5.772;2022-08-19T11:44:47;27.60;58.20
56478;DHT22;42382;53.210;5.772;2022-08-19T11:47:12;27.90;58.10
56478;DHT22;42382;53.210;5.772;2022-08-19T11:49:38;28.00;57.50
56478;DHT22;42382;53.210;5.772;2022-08-19T11:52:03;28.30;56.70
56478;DHT22;42382;53.210;5.772;2022-08-19T11:54:29;28.30;56.10
56478;DHT22;42382;53.210;5.772;2022-08-19T11:56:56;28.40;56.80
56478;DHT22;42382;53.210;5.772;2022-08-19T11:59:21;28.40;55.40
56478;DHT22;42382;53.210;5.772;2022-08-19T12:01:47;28.20;55.50
56478;DHT22;42382;53.210;5.772;2022-08-19T12:04:12;28.00;54.00
56478;DHT22;42382;53.210;5.772;2022-08-19T12:06:40;27.80;54.80
56478;DHT22;42382;53.210;5.772;2022-08-19T12:09:08;27.90;55.30
56478;DHT22;42382;53.210;5.772;2022-08-19T12:11:35;27.90;55.30
56478;DHT22;42382;53.210;5.772;2022-08-19T12:14:02;27.70;56.50
56478;DHT22;42382;53.210;5.772;2022-08-19T12:16:29;27.80;57.10
56478;DHT22;42382;53.210;5.772;2022-08-19T12:18:56;27.90;56.80
56478;DHT22;42382;53.210;5.772;2022-08-19T12:21:25;27.80;55.90
56478;DHT22;42382;53.210;5.772;2022-08-19T12:23:54;27.60;57.00
56478;DHT22;42382;53.210;5.772;2022-08-19T12:26:20;27.60;57.40
56478;DHT22;42382;53.210;5.772;2022-08-19T12:28:46;27.70;57.60
56478;DHT22;42382;53.210;5.772;2022-08-19T12:31:12;27.80;57.70
56478;DHT22;42382;53.210;5.772;2022-08-19T12:33:39;27.90;57.50
56478;DHT22;42382;53.210;5.772;2022-08-19T12:36:08;27.90;57.20
56478;DHT22;42382;53.210;5.772;2022-08-19T12:38:35;27.80;57.80
56478;DHT22;42382;53.210;5.772;2022-08-19T12:41:01;27.70;58.10
56478;DHT22;42382;53.210;5.772;2022-08-19T12:43:32;27.60;58.30
56478;DHT22;42382;53.210;5.772;2022-08-19T12:45:58;27.60;58.10
56478;DHT22;42382;53.210;5.772;2022-08-19T12:48:24;27.50;58.10
56478;DHT22;42382;53.210;5.772;2022-08-19T12:50:49;27.30;58.40
56478;DHT22;42382;53.210;5.772;2022-08-19T12:53:15;27.20;58.70
56478;DHT22;42382;53.210;5.772;2022-08-19T12:55:41;27.20;59.40
56478;DHT22;42382;53.210;5.772;2022-08-19T12:58:08;27.30;59.20
56478;DHT22;42382;53.210;5.772;2022-08-19T13:00:34;27.20;59.20
56478;DHT22;42382;53.210;5.772;2022-08-19T13:03:00;27.30;59.10
56478;DHT22;42382;53.210;5.772;2022-08-19T13:05:28;27.30;58.60
56478;DHT22;42382;53.210;5.772;2022-08-19T13:07:57;27.40;58.40
56478;DHT22;42382;53.210;5.772;2022-08-19T13:10:25;27.40;57.70
56478;DHT22;42382;53.210;5.772;2022-08-19T13:12:53;27.40;57.50
56478;DHT22;42382;53.210;5.772;2022-08-19T13:15:20;27.40;57.90
56478;DHT22;42382;53.210;5.772;2022-08-19T13:17:48;27.40;57.50
56478;DHT22;42382;53.210;5.772;2022-08-19T13:20:16;27.40;57.40
56478;DHT22;42382;53.210;5.772;2022-08-19T13:22:42;27.60;56.70
56478;DHT22;42382;53.210;5.772;2022-08-19T13:25:10;27.40;56.30
56478;DHT22;42382;53.210;5.772;2022-08-19T13:27:36;27.50;56.90
56478;DHT22;42382;53.210;5.772;2022-08-19T13:30:03;27.40;57.30
56478;DHT22;42382;53.210;5.772;2022-08-19T13:32:48;27.40;57.50
56478;DHT22;42382;53.210;5.772;2022-08-19T13:35:32;27.30;57.40
56478;DHT22;42382;53.210;5.772;2022-08-19T13:37:58;27.30;57.20
56478;DHT22;42382;53.210;5.772;2022-08-19T13:40:25;27.20;57.60
56478;DHT22;42382;53.210;5.772;2022-08-19T13:42:53;27.20;58.20
56478;DHT22;42382;53.210;5.772;2022-08-19T13:45:22;27.10;59.20
56478;DHT22;42382;53.210;5.772;2022-08-19T13:47:51;27.20;58.80
56478;DHT22;42382;53.210;5.772;2022-08-19T13:50:19;27.20;58.10
56478;DHT22;42382;53.210;5.772;2022-08-19T13:52:46;27.10;58.40
56478;DHT22;42382;53.210;5.772;2022-08-19T13:55:13;27.10;58.50
56478;DHT22;42382;53.210;5.772;2022-08-19T13:57:40;26.90;58.10
56478;DHT22;42382;53.210;5.772;2022-08-19T14:00:09;26.70;58.20
56478;DHT22;42382;53.210;5.772;2022-08-19T14:02:36;26.60;58.50
56478;DHT22;42382;53.210;5.772;2022-08-19T14:05:04;26.40;59.40
56478;DHT22;42382;53.210;5.772;2022-08-19T14:07:30;26.40;59.70
56478;DHT22;42382;53.210;5.772;2022-08-19T14:09:55;26.40;60.30
56478;DHT22;42382;53.210;5.772;2022-08-19T14:12:21;26.50;60.60
56478;DHT22;42382;53.210;5.772;2022-08-19T14:14:47;26.60;60.60
56478;DHT22;42382;53.210;5.772;2022-08-19T14:17:12;26.70;60.40
56478;DHT22;42382;53.210;5.772;2022-08-19T14:19:38;27.00;60.40
56478;DHT22;42382;53.210;5.772;2022-08-19T14:22:04;27.30;59.40
56478;DHT22;42382;53.210;5.772;2022-08-19T14:24:30;27.40;58.90
56478;DHT22;42382;53.210;5.772;2022-08-19T14:26:57;27.60;57.60
56478;DHT22;42382;53.210;5.772;2022-08-19T14:29:24;27.60;57.00
56478;DHT22;42382;53.210;5.772;2022-08-19T14:31:49;27.60;57.00
56478;DHT22;42382;53.210;5.772;2022-08-19T14:34:15;27.50;56.70
56478;DHT22;42382;53.210;5.772;2022-08-19T14:36:40;27.40;57.50
56478;DHT22;42382;53.210;5.772;2022-08-19T14:39:07;27.10;58.00
56478;DHT22;42382;53.210;5.772;2022-08-19T14:41:34;26.80;58.80
56478;DHT22;42382;53.210;5.772;2022-08-19T14:43:59;26.50;58.90
56478;DHT22;42382;53.210;5.772;2022-08-19T14:46:27;26.40;59.60
56478;DHT22;42382;53.210;5.772;2022-08-19T14:48:53;26.30;60.00
56478;DHT22;42382;53.210;5.772;2022-08-19T14:51:21;26.30;60.40
56478;DHT22;42382;53.210;5.772;2022-08-19T14:53:47;26.10;59.80
56478;DHT22;42382;53.210;5.772;2022-08-19T14:56:16;26.20;60.50
56478;DHT22;42382;53.210;5.772;2022-08-19T14:58:43;26.40;60.60
56478;DHT22;42382;53.210;5.772;2022-08-19T15:01:09;26.40;60.70
56478;DHT22;42382;53.210;5.772;2022-08-19T15:03:35;26.30;61.10
56478;DHT22;42382;53.210;5.772;2022-08-19T15:06:02;26.30;61.60
56478;DHT22;42382;53.210;5.772;2022-08-19T15:08:30;26.40;62.00
56478;DHT22;42382;53.210;5.772;2022-08-19T15:10:56;26.60;61.80
56478;DHT22;42382;53.210;5.772;2022-08-19T15:13:23;26.70;61.30
56478;DHT22;42382;53.210;5.772;2022-08-19T15:15:50;26.80;60.90
56478;DHT22;42382;53.210;5.772;2022-08-19T15:18:17;26.70;60.90
56478;DHT22;42382;53.210;5.772;2022-08-19T15:20:42;26.70;61.20
56478;DHT22;42382;53.210;5.772;2022-08-19T15:23:09;26.60;61.50
56478;DHT22;42382;53.210;5.772;2022-08-19T15:25:36;26.60;61.70
56478;DHT22;42382;53.210;5.772;2022-08-19T15:28:01;26.50;62.00
56478;DHT22;42382;53.210;5.772;2022-08-19T15:30:28;26.40;62.20
56478;DHT22;42382;53.210;5.772;2022-08-19T15:32:55;26.50;62.60
56478;DHT22;42382;53.210;5.772;2022-08-19T15:35:22;26.70;62.60
56478;DHT22;42382;53.210;5.772;2022-08-19T15:37:49;26.80;61.90
56478;DHT22;42382;53.210;5.772;2022-08-19T15:40:15;26.80;61.70
56478;DHT22;42382;53.210;5.772;2022-08-19T15:42:41;26.70;61.90
56478;DHT22;42382;53.210;5.772;2022-08-19T15:45:08;26.70;62.20
56478;DHT22;42382;53.210;5.772;2022-08-19T15:47:35;26.70;62.20
56478;DHT22;42382;53.210;5.772;2022-08-19T15:50:11;26.70;62.10